Time;durP1;ratioP1;P1;durP2;ratioP2;P2;SDS_P1;SDS_P2;PMS_P1;PMS_P2;Temp;Humidity;BMP_temperature;BMP_pressure;BME280_temperature;BME280_humidity;BME280_pressure;Samples;Min_cycle;Max_cycle;Signal;HPM_P1;HPM_P2
2021/09/08 00:00:27;;;;;;;9.82;6.45;;;18.00;92.80;;;;;;5076035;28;20032;-81
2021/09/08 00:02:53;;;;;;;10.55;6.82;;;18.00;92.80;;;;;;5093746;28;20027;-81
2021/09/08 00:05:18;;;;;;;11.70;6.90;;;18.00;92.80;;;;;;5076442;28;20133;-80
2021/09/08 00:07:44;;;;;;;9.98;6.82;;;18.00;92.90;;;;;;5093546;28;20024;-81
2021/09/08 00:10:11;;;;;;;11.48;6.50;;;17.90;92.80;;;;;;5076102;28;20188;-84
2021/09/08 00:12:38;;;;;;;12.13;6.68;;;17.90;92.90;;;;;;5076151;28;20538;-83
2021/09/08 00:15:05;;;;;;;11.30;6.38;;;17.90;92.90;;;;;;5082525;28;20023;-82
2021/09/08 00:17:31;;;;;;;9.45;6.82;;;17.90;93.00;;;;;;5096107;28;20039;-84
2021/09/08 00:19:57;;;;;;;10.57;7.03;;;17.90;93.00;;;;;;5095782;28;20030;-85
2021/09/08 00:22:22;;;;;;;14.00;7.38;;;17.80;92.90;;;;;;5096378;28;20126;-85
2021/09/08 00:24:48;;;;;;;11.40;7.10;;;17.80;93.00;;;;;;5090898;28;20024;-84
2021/09/08 00:27:15;;;;;;;12.73;6.88;;;17.80;93.10;;;;;;5076843;28;20032;-85
2021/09/08 00:29:40;;;;;;;11.40;6.40;;;17.70;93.20;;;;;;5075937;28;20032;-86
2021/09/08 00:32:06;;;;;;;10.10;6.18;;;17.70;93.10;;;;;;5078964;28;20028;-84
2021/09/08 00:34:32;;;;;;;11.35;6.80;;;17.70;93.10;;;;;;5082625;28;20025;-83
2021/09/08 00:36:57;;;;;;;10.55;6.93;;;17.70;93.10;;;;;;5082349;28;20024;-83
2021/09/08 00:39:23;;;;;;;9.93;6.82;;;17.70;93.00;;;;;;5082784;28;20070;-82
2021/09/08 00:41:49;;;;;;;10.77;7.07;;;17.70;93.00;;;;;;5081969;28;20031;-80
2021/09/08 00:44:15;;;;;;;13.07;6.90;;;17.70;93.00;;;;;;5095339;28;20056;-80
2021/09/08 00:46:45;;;;;;;9.98;6.50;;;17.60;93.00;;;;;;5102631;28;20027;-82
2021/09/08 00:49:11;;;;;;;10.20;7.03;;;17.60;93.30;;;;;;5120584;28;20042;-79
2021/09/08 00:51:38;;;;;;;11.95;7.47;;;17.60;93.20;;;;;;5120992;28;20054;-80
2021/09/08 00:54:14;;;;;;;11.23;6.50;;;17.60;93.20;;;;;;5120433;28;20089;-84
2021/09/08 00:56:44;;;;;;;12.15;7.32;;;17.60;93.30;;;;;;5102282;28;20055;-85
2021/09/08 00:59:10;;;;;;;11.30;7.25;;;17.60;93.30;;;;;;5102898;28;20067;-84
2021/09/08 01:01:37;;;;;;;12.60;7.38;;;17.60;93.20;;;;;;5102846;28;20032;-85
2021/09/08 01:04:02;;;;;;;10.40;7.45;;;17.60;93.30;;;;;;5102360;28;20026;-85
2021/09/08 01:06:28;;;;;;;8.93;6.63;;;17.60;93.30;;;;;;5102739;28;20120;-84
2021/09/08 01:08:54;;;;;;;12.50;7.32;;;17.50;93.40;;;;;;5102388;28;20464;-86
2021/09/08 01:11:21;;;;;;;12.93;7.15;;;17.50;93.40;;;;;;5120822;28;20024;-83
2021/09/08 01:13:47;;;;;;;12.38;7.60;;;17.50;93.40;;;;;;5093037;28;20027;-82
2021/09/08 01:16:13;;;;;;;13.30;7.53;;;17.50;93.40;;;;;;5096927;28;20028;-82
2021/09/08 01:18:38;;;;;;;12.05;7.93;;;17.40;93.40;;;;;;5120264;28;20055;-81
2021/09/08 01:21:04;;;;;;;11.27;6.82;;;17.40;93.50;;;;;;5120279;28;20020;-81
2021/09/08 01:23:31;;;;;;;10.98;7.05;;;17.40;93.90;;;;;;5102302;28;20053;-81
2021/09/08 01:26:02;;;;;;;11.15;7.55;;;17.40;93.60;;;;;;5088552;28;20035;-84
2021/09/08 01:28:27;;;;;;;10.43;7.40;;;17.40;93.50;;;;;;5082366;28;20127;-83
2021/09/08 01:30:55;;;;;;;10.88;7.15;;;17.30;93.40;;;;;;5081381;28;20059;-83
2021/09/08 01:33:20;;;;;;;11.60;7.35;;;17.30;93.50;;;;;;5099802;28;20063;-83
2021/09/08 01:35:46;;;;;;;13.43;7.80;;;17.30;93.60;;;;;;5092469;28;20047;-84
2021/09/08 01:38:12;;;;;;;10.15;6.97;;;17.30;93.70;;;;;;5101240;28;20065;-82
2021/09/08 01:40:38;;;;;;;10.52;6.97;;;17.30;93.70;;;;;;5081814;28;20028;-84
2021/09/08 01:43:04;;;;;;;12.23;7.85;;;17.30;93.60;;;;;;5079054;28;20132;-83
2021/09/08 01:45:29;;;;;;;11.25;7.13;;;17.30;93.60;;;;;;5105290;28;20073;-84
2021/09/08 01:47:56;;;;;;;15.63;7.25;;;17.30;93.70;;;;;;5098747;28;20084;-83
2021/09/08 01:50:23;;;;;;;14.38;7.45;;;17.20;93.60;;;;;;5117153;28;20026;-83
2021/09/08 01:52:49;;;;;;;12.43;7.43;;;17.20;93.70;;;;;;5116484;28;20019;-83
2021/09/08 01:55:15;;;;;;;10.65;6.68;;;17.20;93.60;;;;;;5116841;28;20478;-83
2021/09/08 01:57:41;;;;;;;10.60;7.32;;;17.10;93.70;;;;;;5116079;28;20106;-82
2021/09/08 02:00:09;;;;;;;11.07;7.10;;;17.10;93.70;;;;;;5098237;28;20181;-82
2021/09/08 02:02:35;;;;;;;11.60;7.53;;;17.00;93.80;;;;;;5116526;28;20030;-79
2021/09/08 02:05:00;;;;;;;12.27;7.05;;;17.10;93.80;;;;;;5111710;28;20024;-82
2021/09/08 02:07:26;;;;;;;10.80;7.68;;;17.00;93.80;;;;;;5078611;28;20032;-82
2021/09/08 02:09:52;;;;;;;11.00;7.20;;;17.00;93.80;;;;;;5077975;28;20487;-83
2021/09/08 02:12:18;;;;;;;12.25;7.28;;;17.00;93.70;;;;;;5078193;28;20077;-83
2021/09/08 02:14:44;;;;;;;11.95;6.80;;;17.00;93.80;;;;;;5093889;28;20033;-84
2021/09/08 02:17:09;;;;;;;11.48;7.38;;;17.00;93.80;;;;;;5098306;28;20055;-82
2021/09/08 02:19:35;;;;;;;12.18;6.45;;;16.90;93.80;;;;;;5089391;28;20382;-82
2021/09/08 02:22:01;;;;;;;10.98;6.90;;;16.90;93.90;;;;;;5077404;28;20297;-83
2021/09/08 02:24:26;;;;;;;10.77;7.43;;;16.80;93.90;;;;;;5078114;28;20052;-82
2021/09/08 02:26:52;;;;;;;13.55;8.15;;;16.90;93.90;;;;;;5077020;28;20031;-82
2021/09/08 02:29:18;;;;;;;11.43;7.22;;;16.90;93.80;;;;;;5078473;28;20483;-81
2021/09/08 02:31:43;;;;;;;12.32;7.40;;;16.90;93.80;;;;;;5077424;28;20024;-84
2021/09/08 02:34:09;;;;;;;13.02;7.55;;;16.90;93.90;;;;;;5077855;28;20411;-82
2021/09/08 02:36:35;;;;;;;13.55;7.57;;;16.90;93.80;;;;;;5093080;28;20030;-82
2021/09/08 02:39:01;;;;;;;11.10;7.28;;;16.80;93.80;;;;;;5115664;28;20719;-82
2021/09/08 02:41:26;;;;;;;14.10;7.35;;;16.80;93.80;;;;;;5098533;28;20028;-83
2021/09/08 02:43:53;;;;;;;9.82;6.72;;;16.70;93.90;;;;;;5090014;28;20391;-89
2021/09/08 02:46:19;;;;;;;9.48;6.88;;;16.70;94.00;;;;;;5116040;28;20144;-85
2021/09/08 02:48:45;;;;;;;10.40;6.95;;;16.70;94.00;;;;;;5097672;28;20028;-86
2021/09/08 02:51:10;;;;;;;9.57;6.78;;;16.60;94.00;;;;;;5097964;28;20028;-79
2021/09/08 02:53:36;;;;;;;9.48;6.88;;;16.60;94.10;;;;;;5082996;28;20396;-79
2021/09/08 02:56:03;;;;;;;10.43;6.90;;;16.50;94.10;;;;;;5075969;28;20537;-82
2021/09/08 02:58:30;;;;;;;14.88;7.50;;;16.50;94.20;;;;;;5076568;28;20036;-82
2021/09/08 03:00:56;;;;;;;10.10;7.03;;;16.40;94.30;;;;;;5076586;28;20119;-83
2021/09/08 03:03:22;;;;;;;12.65;7.43;;;16.50;94.30;;;;;;5095377;28;20028;-82
2021/09/08 03:05:50;;;;;;;11.55;7.30;;;16.40;94.20;;;;;;5095644;28;20415;-81
2021/09/08 03:08:16;;;;;;;13.45;8.15;;;16.50;94.30;;;;;;5077931;28;20100;-81
2021/09/08 03:10:43;;;;;;;10.43;7.28;;;16.50;94.20;;;;;;5077131;28;20024;-81
2021/09/08 03:13:14;;;;;;;11.32;7.35;;;16.50;94.20;;;;;;5101039;28;20016;-82
2021/09/08 03:15:40;;;;;;;10.00;6.93;;;16.50;94.20;;;;;;5097379;28;20059;-82
2021/09/08 03:18:07;;;;;;;14.85;8.27;;;16.50;94.20;;;;;;5094634;28;20051;-83
2021/09/08 03:20:32;;;;;;;12.63;8.05;;;16.40;94.20;;;;;;5095138;28;20024;-82
2021/09/08 03:22:58;;;;;;;12.35;7.25;;;16.40;94.40;;;;;;5076899;28;20036;-82
2021/09/08 03:25:24;;;;;;;11.98;7.50;;;16.30;94.40;;;;;;5077109;28;20030;-81
2021/09/08 03:27:50;;;;;;;15.23;8.35;;;16.30;94.50;;;;;;5094352;28;20115;-82
2021/09/08 03:30:16;;;;;;;11.35;7.32;;;16.30;94.50;;;;;;5077023;28;20390;-82
2021/09/08 03:32:41;;;;;;;13.48;7.82;;;16.30;94.40;;;;;;5076824;28;20078;-84
2021/09/08 03:35:08;;;;;;;11.32;7.15;;;16.40;94.40;;;;;;5076048;28;20031;-82
2021/09/08 03:37:33;;;;;;;13.32;7.28;;;16.30;94.40;;;;;;5076430;28;20051;-82
2021/09/08 03:39:59;;;;;;;11.55;7.60;;;16.40;94.40;;;;;;5091483;28;20059;-83
2021/09/08 03:42:25;;;;;;;12.05;7.63;;;16.30;94.40;;;;;;5096812;28;20035;-83
2021/09/08 03:44:51;;;;;;;13.50;7.72;;;16.30;94.50;;;;;;5114053;28;20044;-82
2021/09/08 03:47:17;;;;;;;11.18;7.32;;;16.30;94.50;;;;;;5096639;28;20392;-82
2021/09/08 03:49:46;;;;;;;11.25;7.32;;;16.40;94.50;;;;;;5094085;28;20020;-85
2021/09/08 03:52:16;;;;;;;14.55;7.60;;;16.30;94.40;;;;;;5096826;28;20084;-82
2021/09/08 03:54:43;;;;;;;13.43;7.32;;;16.30;94.50;;;;;;5096785;28;20134;-82
2021/09/08 03:57:08;;;;;;;11.82;7.68;;;16.30;94.50;;;;;;5113758;28;20472;-82
2021/09/08 03:59:35;;;;;;;11.07;7.30;;;16.30;94.60;;;;;;5109662;28;20060;-81
2021/09/08 04:02:01;;;;;;;11.10;6.93;;;16.30;94.60;;;;;;5075390;28;20126;-82
2021/09/08 04:04:27;;;;;;;11.13;7.03;;;16.30;94.60;;;;;;5075923;28;20075;-81
2021/09/08 04:06:52;;;;;;;12.50;7.70;;;16.20;94.60;;;;;;5074853;28;20500;-81
2021/09/08 04:09:18;;;;;;;12.07;7.80;;;16.20;94.70;;;;;;5094136;28;20025;-81
2021/09/08 04:11:44;;;;;;;11.63;7.80;;;16.10;94.80;;;;;;5095735;28;20024;-83
2021/09/08 04:14:10;;;;;;;11.40;7.28;;;16.10;94.80;;;;;;5114274;28;20125;-81
2021/09/08 04:16:36;;;;;;;13.00;7.32;;;16.10;94.80;;;;;;5114365;28;20037;-81
2021/09/08 04:19:02;;;;;;;9.80;6.97;;;16.10;94.80;;;;;;5114098;28;20047;-81
2021/09/08 04:21:27;;;;;;;11.27;7.20;;;16.10;94.80;;;;;;5095810;28;20023;-81
2021/09/08 04:23:53;;;;;;;10.75;7.32;;;16.20;94.90;;;;;;5113793;28;20457;-81
2021/09/08 04:26:19;;;;;;;11.15;7.18;;;16.10;94.80;;;;;;5096323;28;20034;-81
2021/09/08 04:28:45;;;;;;;11.77;7.07;;;16.10;94.80;;;;;;5096530;28;20472;-83
2021/09/08 04:31:11;;;;;;;13.20;7.57;;;16.00;94.80;;;;;;5114466;28;20027;-81
2021/09/08 04:33:36;;;;;;;12.60;7.22;;;16.10;94.90;;;;;;5114565;28;20028;-80
2021/09/08 04:36:02;;;;;;;10.70;7.47;;;16.00;94.80;;;;;;5095814;28;20024;-81
2021/09/08 04:38:28;;;;;;;12.40;7.50;;;16.00;94.80;;;;;;5096388;28;20499;-81
2021/09/08 04:40:54;;;;;;;11.88;7.85;;;16.10;94.90;;;;;;5113914;28;20037;-80
2021/09/08 04:43:20;;;;;;;14.43;7.93;;;16.20;94.80;;;;;;5114090;28;20024;-80
2021/09/08 04:45:46;;;;;;;13.70;7.70;;;16.10;94.60;;;;;;5096134;28;20138;-82
2021/09/08 04:48:13;;;;;;;13.93;7.60;;;16.10;94.70;;;;;;5075871;28;20524;-81
2021/09/08 04:50:39;;;;;;;12.15;7.20;;;16.00;94.80;;;;;;5076042;28;20047;-81
2021/09/08 04:53:04;;;;;;;11.27;7.82;;;16.00;94.80;;;;;;5093488;28;20456;-81
2021/09/08 04:55:30;;;;;;;15.77;8.82;;;16.00;94.80;;;;;;5075955;28;20020;-81
2021/09/08 04:57:56;;;;;;;11.88;8.05;;;16.00;95.10;;;;;;5075499;28;20044;-82
2021/09/08 05:00:22;;;;;;;12.15;7.70;;;16.00;94.80;;;;;;5075538;28;20036;-81
2021/09/08 05:02:47;;;;;;;11.40;7.90;;;16.00;94.80;;;;;;5080287;28;20047;-83
2021/09/08 05:05:13;;;;;;;9.98;7.18;;;16.00;94.90;;;;;;5095858;28;20449;-81
2021/09/08 05:07:39;;;;;;;13.23;8.27;;;15.90;94.80;;;;;;5096184;28;20468;-81
2021/09/08 05:10:05;;;;;;;11.07;7.47;;;15.90;94.90;;;;;;5095068;28;20019;-82
2021/09/08 05:12:30;;;;;;;11.50;7.80;;;15.90;95.00;;;;;;5095890;28;20027;-81
2021/09/08 05:14:56;;;;;;;14.32;7.97;;;15.90;95.10;;;;;;5095586;28;20024;-83
2021/09/08 05:17:22;;;;;;;11.93;7.40;;;15.90;95.20;;;;;;5111649;28;20464;-81
2021/09/08 05:19:47;;;;;;;14.02;8.10;;;15.90;95.20;;;;;;5085870;28;20024;-83
2021/09/08 05:22:13;;;;;;;14.60;8.07;;;15.90;95.20;;;;;;5096463;28;20024;-82
2021/09/08 05:24:38;;;;;;;16.73;8.27;;;15.90;95.30;;;;;;5097088;28;20016;-82
2021/09/08 05:27:04;;;;;;;13.10;8.93;;;15.90;95.30;;;;;;5078420;28;20088;-82
2021/09/08 05:29:30;;;;;;;12.68;8.43;;;15.90;95.30;;;;;;5079150;28;20119;-81
2021/09/08 05:31:56;;;;;;;13.05;8.65;;;15.90;95.30;;;;;;5084022;28;20028;-82
2021/09/08 05:34:21;;;;;;;12.65;8.32;;;15.90;95.40;;;;;;5115574;28;20107;-82
2021/09/08 05:36:47;;;;;;;12.80;8.23;;;15.90;95.50;;;;;;5092964;28;20085;-82
2021/09/08 05:39:13;;;;;;;12.68;7.80;;;15.90;95.40;;;;;;5078103;28;20497;-82
2021/09/08 05:41:39;;;;;;;11.68;8.02;;;15.90;95.50;;;;;;5078823;28;20034;-82
2021/09/08 05:44:05;;;;;;;14.93;8.27;;;15.90;95.50;;;;;;5078246;28;20024;-81
2021/09/08 05:46:31;;;;;;;13.70;8.88;;;15.90;95.70;;;;;;5079042;28;20435;-82
2021/09/08 05:48:56;;;;;;;14.13;8.25;;;15.90;95.60;;;;;;5077961;28;20034;-82
2021/09/08 05:51:22;;;;;;;11.48;7.75;;;15.80;95.60;;;;;;5078397;28;20032;-82
2021/09/08 05:53:47;;;;;;;14.13;8.73;;;15.90;95.70;;;;;;5078931;28;20508;-82
2021/09/08 05:56:13;;;;;;;12.48;8.60;;;15.90;95.80;;;;;;5078226;28;20055;-82
2021/09/08 05:58:39;;;;;;;14.02;8.85;;;15.90;95.80;;;;;;5079058;28;20042;-81
2021/09/08 06:01:04;;;;;;;15.60;8.20;;;15.90;95.80;;;;;;5086050;28;20416;-81
2021/09/08 06:03:30;;;;;;;14.75;9.18;;;15.90;95.90;;;;;;5095436;28;20027;-82
2021/09/08 06:05:56;;;;;;;15.65;9.25;;;15.90;95.90;;;;;;5105138;28;20099;-82
2021/09/08 06:08:21;;;;;;;13.48;8.70;;;15.90;95.90;;;;;;5098498;28;20027;-82
2021/09/08 06:10:48;;;;;;;14.65;8.48;;;15.90;95.90;;;;;;5098932;28;20023;-82
2021/09/08 06:13:14;;;;;;;13.70;9.02;;;15.90;96.00;;;;;;5103594;28;20028;-82
2021/09/08 06:15:40;;;;;;;13.02;8.30;;;16.00;96.20;;;;;;5096535;28;20024;-82
2021/09/08 06:18:06;;;;;;;17.80;8.63;;;16.00;96.00;;;;;;5079444;28;20435;-81
2021/09/08 06:20:33;;;;;;;14.98;8.43;;;16.10;96.00;;;;;;5076295;28;20064;-81
2021/09/08 06:22:59;;;;;;;13.98;9.07;;;16.10;95.90;;;;;;5074392;28;20071;-82
2021/09/08 06:25:25;;;;;;;13.10;8.20;;;16.10;95.80;;;;;;5074274;28;20028;-81
2021/09/08 06:27:50;;;;;;;15.15;8.32;;;16.20;95.90;;;;;;5090347;28;20043;-81
2021/09/08 06:30:17;;;;;;;14.27;8.45;;;16.20;95.90;;;;;;5095180;28;20115;-82
2021/09/08 06:32:42;;;;;;;12.43;8.10;;;16.30;95.90;;;;;;5086074;28;20481;-82
2021/09/08 06:35:08;;;;;;;15.10;8.50;;;16.30;95.90;;;;;;5074244;28;20020;-83
2021/09/08 06:37:34;;;;;;;13.95;8.38;;;16.20;95.90;;;;;;5074591;28;20032;-82
2021/09/08 06:40:00;;;;;;;15.43;8.43;;;16.30;95.90;;;;;;5090879;28;20036;-84
2021/09/08 06:42:25;;;;;;;13.02;8.05;;;16.40;95.90;;;;;;5094882;28;20461;-83
2021/09/08 06:44:54;;;;;;;13.93;8.35;;;16.50;95.90;;;;;;5095331;28;20035;-84
2021/09/08 06:47:21;;;;;;;12.55;8.20;;;16.50;95.80;;;;;;5094816;28;20027;-83
2021/09/08 06:49:49;;;;;;;15.38;8.70;;;16.50;95.70;;;;;;5094754;28;20024;-83
2021/09/08 06:52:14;;;;;;;18.48;8.52;;;16.60;95.50;;;;;;5094975;28;20024;-84
2021/09/08 06:54:40;;;;;;;13.80;8.00;;;16.60;95.60;;;;;;5094745;28;20380;-84
2021/09/08 06:57:05;;;;;;;13.85;8.05;;;16.70;95.40;;;;;;5093990;28;20034;-84
2021/09/08 06:59:31;;;;;;;11.38;7.93;;;16.70;95.30;;;;;;5089152;28;20036;-83
2021/09/08 07:01:58;;;;;;;10.88;7.20;;;16.80;95.30;;;;;;5079957;28;20025;-82
2021/09/08 07:04:24;;;;;;;13.25;8.32;;;16.80;95.30;;;;;;5080280;28;20035;-83
2021/09/08 07:06:50;;;;;;;13.95;8.55;;;16.90;95.10;;;;;;5094426;28;20028;-82
2021/09/08 07:09:16;;;;;;;12.40;8.18;;;16.90;94.90;;;;;;5085170;28;20503;-83
2021/09/08 07:11:41;;;;;;;14.00;8.10;;;17.00;94.60;;;;;;5085138;28;20077;-83
2021/09/08 07:14:07;;;;;;;12.88;7.65;;;17.00;94.60;;;;;;5087450;28;20043;-83
2021/09/08 07:16:33;;;;;;;11.90;7.75;;;17.00;94.50;;;;;;5088986;28;20024;-83
2021/09/08 07:18:58;;;;;;;13.82;8.20;;;17.10;94.50;;;;;;5088430;28;20131;-83
2021/09/08 07:21:24;;;;;;;10.93;8.02;;;17.20;94.40;;;;;;5084196;28;20051;-82
2021/09/08 07:23:51;;;;;;;12.20;8.25;;;17.20;94.40;;;;;;5084831;28;20155;-83
2021/09/08 07:26:16;;;;;;;13.65;7.80;;;17.20;94.40;;;;;;5079342;28;20025;-82
2021/09/08 07:28:42;;;;;;;12.50;8.05;;;17.30;94.40;;;;;;5092398;28;20043;-83
2021/09/08 07:31:07;;;;;;;12.93;8.30;;;17.40;94.30;;;;;;5074114;28;20119;-82
2021/09/08 07:33:33;;;;;;;14.35;8.15;;;17.40;94.30;;;;;;5076632;28;20115;-83
2021/09/08 07:35:59;;;;;;;14.20;8.05;;;17.40;94.30;;;;;;5072576;28;20025;-82
2021/09/08 07:38:26;;;;;;;12.85;7.78;;;17.50;94.30;;;;;;5080967;28;20024;-82
2021/09/08 07:40:52;;;;;;;11.80;7.53;;;17.50;94.00;;;;;;5092963;28;20081;-81
2021/09/08 07:43:20;;;;;;;15.50;8.02;;;17.50;93.90;;;;;;5078003;28;20028;-82
2021/09/08 07:45:47;;;;;;;11.38;7.40;;;17.60;93.80;;;;;;5091448;28;20531;-82
2021/09/08 07:48:13;;;;;;;12.77;7.95;;;17.70;94.10;;;;;;5092491;28;20118;-81
2021/09/08 07:50:40;;;;;;;9.68;6.78;;;17.70;93.40;;;;;;5093195;28;20020;-81
2021/09/08 07:53:09;;;;;;;10.98;6.82;;;17.80;93.60;;;;;;5087307;28;20024;-81
2021/09/08 07:55:36;;;;;;;11.80;7.63;;;17.80;93.20;;;;;;5082166;28;20024;-81
2021/09/08 07:58:03;;;;;;;11.48;7.30;;;17.90;93.20;;;;;;5080105;28;20081;-82
2021/09/08 08:00:30;;;;;;;10.23;7.07;;;17.90;92.80;;;;;;5075879;28;20137;-81
2021/09/08 08:02:55;;;;;;;11.63;7.18;;;18.00;92.70;;;;;;5074023;28;20021;-81
2021/09/08 08:05:21;;;;;;;12.55;6.85;;;18.10;92.70;;;;;;5074199;28;20033;-81
2021/09/08 08:07:47;;;;;;;12.32;6.95;;;18.10;92.90;;;;;;5075938;28;20049;-82
2021/09/08 08:10:15;;;;;;;11.15;7.22;;;18.20;92.30;;;;;;5093825;28;20028;-81
2021/09/08 08:12:40;;;;;;;14.80;7.40;;;18.20;92.50;;;;;;5088735;28;20046;-80
2021/09/08 08:15:08;;;;;;;8.98;6.47;;;18.30;92.80;;;;;;5081120;28;20540;-81
2021/09/08 08:17:34;;;;;;;9.90;6.78;;;18.40;92.90;;;;;;5089326;28;20439;-80
2021/09/08 08:20:04;;;;;;;12.90;7.20;;;18.40;92.70;;;;;;5081576;28;20077;-81
2021/09/08 08:22:30;;;;;;;11.00;6.45;;;18.50;92.00;;;;;;5076226;28;20028;-80
2021/09/08 08:24:56;;;;;;;12.48;6.70;;;18.50;91.70;;;;;;5077604;28;20372;-80
2021/09/08 08:27:22;;;;;;;12.18;6.20;;;18.60;91.70;;;;;;5095407;28;20055;-80
2021/09/08 08:29:48;;;;;;;11.63;5.85;;;18.70;91.60;;;;;;5088888;28;20059;-80
2021/09/08 08:32:14;;;;;;;10.88;5.95;;;18.70;91.50;;;;;;5110484;28;20054;-81
2021/09/08 08:34:39;;;;;;;11.35;6.13;;;18.80;91.20;;;;;;5103815;28;20480;-80
2021/09/08 08:37:05;;;;;;;11.48;5.90;;;18.90;90.80;;;;;;5094892;28;20112;-81
2021/09/08 08:39:31;;;;;;;8.70;5.93;;;18.90;91.00;;;;;;5095087;28;20040;-80
2021/09/08 08:41:57;;;;;;;9.70;6.22;;;19.00;90.70;;;;;;5077102;28;20031;-81
2021/09/08 08:44:24;;;;;;;8.90;5.97;;;19.00;90.60;;;;;;5084595;28;20452;-80
2021/09/08 08:46:52;;;;;;;10.80;6.18;;;19.00;90.60;;;;;;5094019;28;20031;-80
2021/09/08 08:49:20;;;;;;;11.85;5.72;;;19.10;90.70;;;;;;5082048;28;20109;-81
2021/09/08 08:51:49;;;;;;;10.93;5.90;;;19.20;90.20;;;;;;5111177;28;20038;-80
2021/09/08 08:54:15;;;;;;;8.60;5.82;;;19.20;90.00;;;;;;5094454;28;20020;-80
2021/09/08 08:56:41;;;;;;;9.70;5.95;;;19.40;89.50;;;;;;5093539;28;20024;-81
2021/09/08 08:59:06;;;;;;;8.80;6.22;;;19.40;88.00;;;;;;5089235;28;20346;-81
2021/09/08 09:01:33;;;;;;;7.70;5.60;;;19.50;89.60;;;;;;5093795;28;20461;-82
2021/09/08 09:04:03;;;;;;;9.68;5.82;;;19.50;88.60;;;;;;5079192;28;20021;-81
2021/09/08 09:06:30;;;;;;;10.43;6.25;;;19.50;89.00;;;;;;5081831;28;20023;-80
2021/09/08 09:09:07;;;;;;;10.70;5.50;;;19.60;87.60;;;;;;5109109;28;20452;-79
2021/09/08 09:11:33;;;;;;;7.93;5.03;;;19.70;88.00;;;;;;5111726;28;20020;-79
2021/09/08 09:14:01;;;;;;;9.75;5.22;;;19.70;87.60;;;;;;5099244;28;20015;-81
2021/09/08 09:16:27;;;;;;;8.18;5.57;;;19.80;87.60;;;;;;5094966;28;20035;-80
2021/09/08 09:18:54;;;;;;;8.98;5.45;;;20.00;86.10;;;;;;5075261;28;20041;-81
2021/09/08 09:21:22;;;;;;;9.48;5.35;;;20.00;85.50;;;;;;5089607;28;20054;-81
2021/09/08 09:23:53;;;;;;;8.10;5.45;;;20.10;85.80;;;;;;5076094;28;20020;-80
2021/09/08 09:26:43;;;;;;;8.02;4.88;;;20.20;84.20;;;;;;5073648;28;20024;-80
2021/09/08 09:29:18;;;;;;;8.32;4.68;;;20.30;83.70;;;;;;5088683;28;20040;-80
2021/09/08 09:31:56;;;;;;;6.35;4.28;;;20.40;83.00;;;;;;5079039;28;20445;-79
2021/09/08 09:34:23;;;;;;;6.65;4.95;;;20.50;81.10;;;;;;5073145;28;20054;-80
2021/09/08 09:36:54;;;;;;;6.65;4.22;;;20.50;81.50;;;;;;5082428;28;20132;-82
2021/09/08 09:39:28;;;;;;;9.35;4.10;;;20.60;81.20;;;;;;5065202;28;20028;-81
2021/09/08 09:42:02;;;;;;;7.38;4.50;;;20.70;80.10;;;;;;5064254;28;20074;-79
2021/09/08 09:44:34;;;;;;;8.55;4.72;;;20.80;79.80;;;;;;5091376;28;20031;-80
2021/09/08 09:47:02;;;;;;;6.03;4.15;;;20.80;78.40;;;;;;5067887;28;20041;-80
2021/09/08 09:49:33;;;;;;;8.05;4.50;;;20.90;77.00;;;;;;5083235;28;20029;-81
2021/09/08 09:51:59;;;;;;;5.90;4.00;;;21.00;76.00;;;;;;5087489;28;20020;-80
2021/09/08 09:54:25;;;;;;;7.22;4.30;;;21.10;75.90;;;;;;5089987;28;20030;-80
2021/09/08 09:56:54;;;;;;;6.15;3.85;;;21.10;75.40;;;;;;5071313;28;20062;-80
2021/09/08 09:59:20;;;;;;;6.72;4.00;;;21.20;74.30;;;;;;5075914;28;20032;-81
2021/09/08 10:01:46;;;;;;;7.18;4.10;;;21.20;73.30;;;;;;5062756;28;20025;-82
2021/09/08 10:04:12;;;;;;;6.85;4.35;;;21.20;72.70;;;;;;5072113;28;20027;-82
2021/09/08 10:06:39;;;;;;;7.95;4.07;;;21.20;72.30;;;;;;5075757;28;20019;-81
2021/09/08 10:09:06;;;;;;;7.28;3.90;;;21.20;73.10;;;;;;5083361;28;20161;-81
2021/09/08 10:11:34;;;;;;;6.10;4.18;;;21.30;72.70;;;;;;5091179;28;20028;-81
2021/09/08 10:14:07;;;;;;;7.60;3.65;;;21.40;72.90;;;;;;5075819;28;20024;-81
2021/09/08 10:16:35;;;;;;;8.60;4.20;;;21.40;71.20;;;;;;5073055;28;20051;-81
2021/09/08 10:19:07;;;;;;;7.50;3.97;;;21.50;71.60;;;;;;5095009;28;20480;-81
2021/09/08 10:21:35;;;;;;;4.85;3.55;;;21.50;72.50;;;;;;5089681;28;20093;-81
2021/09/08 10:24:05;;;;;;;7.28;4.03;;;21.60;71.70;;;;;;5089421;28;20081;-81
2021/09/08 10:26:33;;;;;;;8.10;4.70;;;21.60;72.80;;;;;;5086970;28;20028;-82
2021/09/08 10:29:07;;;;;;;8.25;4.32;;;21.70;71.50;;;;;;5091467;28;20035;-80
2021/09/08 10:31:41;;;;;;;6.60;3.97;;;21.70;70.70;;;;;;5078057;28;20028;-82
2021/09/08 10:34:08;;;;;;;6.05;4.30;;;21.80;70.00;;;;;;5078035;28;20028;-82
2021/09/08 10:36:36;;;;;;;8.95;4.20;;;21.70;70.40;;;;;;5097388;28;20028;-82
2021/09/08 10:39:15;;;;;;;6.30;4.55;;;21.70;71.70;;;;;;5095863;28;20035;-82
2021/09/08 10:41:52;;;;;;;7.10;4.63;;;21.80;71.50;;;;;;5115938;28;20107;-81
2021/09/08 10:44:39;;;;;;;6.93;4.35;;;21.90;72.20;;;;;;5097357;28;20023;-82
2021/09/08 10:47:05;;;;;;;8.15;4.70;;;22.00;71.90;;;;;;5088412;28;20035;-80
2021/09/08 10:49:38;;;;;;;6.30;4.30;;;22.10;71.80;;;;;;5092127;28;20042;-81
2021/09/08 10:52:36;;;;;;;7.05;4.45;;;22.10;71.00;;;;;;5077786;28;20027;-85
2021/09/08 10:55:01;;;;;;;7.20;4.45;;;22.20;72.40;;;;;;5077984;28;20067;-84
2021/09/08 10:57:48;;;;;;;9.10;4.38;;;22.20;72.40;;;;;;5091030;28;20057;-83
2021/09/08 11:00:21;;;;;;;6.22;4.05;;;22.30;72.10;;;;;;5080018;28;20063;-83
2021/09/08 11:02:47;;;;;;;6.75;3.95;;;22.30;72.30;;;;;;5096175;28;20028;-82
2021/09/08 11:05:13;;;;;;;7.97;4.20;;;22.40;72.30;;;;;;5113502;28;20461;-84
2021/09/08 11:07:43;;;;;;;5.72;4.20;;;22.50;72.10;;;;;;5084081;28;20127;-82
2021/09/08 11:10:13;;;;;;;6.57;4.13;;;22.50;71.70;;;;;;5105351;28;20469;-86
2021/09/08 11:12:51;;;;;;;9.85;4.82;;;22.50;72.50;;;;;;5110644;28;20122;-87
2021/09/08 11:15:29;;;;;;;9.15;4.65;;;22.50;74.00;;;;;;5096463;28;20032;-86
2021/09/08 11:17:55;;;;;;;9.23;4.45;;;22.70;73.00;;;;;;5079952;28;20080;-86
2021/09/08 11:20:20;;;;;;;7.43;4.38;;;22.60;72.90;;;;;;5065966;28;20466;-85
2021/09/08 11:23:14;;;;;;;7.45;4.70;;;22.70;73.10;;;;;;5072233;28;20031;-87
2021/09/08 11:25:42;;;;;;;7.38;4.32;;;22.70;70.70;;;;;;5061710;28;20032;-85
2021/09/08 11:28:09;;;;;;;6.97;4.72;;;22.80;73.50;;;;;;5067835;28;20071;-85
2021/09/08 11:30:38;;;;;;;6.55;4.60;;;22.80;72.20;;;;;;5061367;28;20446;-86
2021/09/08 11:33:06;;;;;;;7.75;4.18;;;22.90;72.30;;;;;;5074051;28;20081;-85
2021/09/08 11:35:33;;;;;;;8.50;4.18;;;23.00;71.40;;;;;;5072318;28;20028;-85
2021/09/08 11:37:59;;;;;;;6.70;4.15;;;23.10;70.90;;;;;;5061841;28;20025;-82
2021/09/08 11:40:25;;;;;;;6.75;3.95;;;23.20;70.70;;;;;;5072507;28;20028;-85
2021/09/08 11:42:50;;;;;;;9.38;3.95;;;23.10;70.10;;;;;;5063363;28;20027;-89
2021/09/08 11:45:30;;;;;;;5.88;4.32;;;23.10;71.00;;;;;;5062125;28;20127;-88
2021/09/08 11:47:56;;;;;;;7.82;4.60;;;23.10;70.70;;;;;;5071991;28;20047;-82
2021/09/08 11:50:23;;;;;;;8.35;4.65;;;23.10;69.40;;;;;;5067048;28;20036;-84
2021/09/08 11:52:58;;;;;;;6.00;4.32;;;23.20;71.00;;;;;;5075837;28;20066;-84
2021/09/08 11:55:37;;;;;;;9.93;4.13;;;23.30;70.40;;;;;;5075720;28;20024;-83
2021/09/08 11:58:22;;;;;;;8.40;4.88;;;23.30;69.90;;;;;;5091671;28;20032;-85
2021/09/08 12:01:08;;;;;;;6.43;4.40;;;23.50;69.20;;;;;;5057859;28;20139;-86
2021/09/08 12:03:42;;;;;;;8.35;4.38;;;23.60;67.70;;;;;;5071953;28;20480;-85
2021/09/08 12:06:08;;;;;;;8.57;4.50;;;23.80;69.10;;;;;;5075502;28;20021;-85
2021/09/08 12:08:34;;;;;;;7.85;4.47;;;23.80;68.00;;;;;;5059923;28;20405;-81
2021/09/08 12:11:00;;;;;;;9.25;4.40;;;23.90;67.80;;;;;;5089872;28;20048;-85
2021/09/08 12:13:27;;;;;;;5.78;4.10;;;24.10;68.50;;;;;;5071977;28;20059;-81
2021/09/08 12:15:53;;;;;;;9.18;4.53;;;24.30;68.50;;;;;;5076034;28;20020;-83
2021/09/08 12:18:19;;;;;;;6.53;3.90;;;24.40;67.80;;;;;;5101666;28;20408;-80
2021/09/08 12:20:44;;;;;;;6.55;3.97;;;24.60;66.30;;;;;;5091180;28;20027;-81
2021/09/08 12:23:29;;;;;;;5.70;4.05;;;24.80;65.60;;;;;;5095479;28;20088;-83
2021/09/08 12:26:06;;;;;;;5.78;3.90;;;25.00;62.60;;;;;;5096275;28;20023;-86
2021/09/08 12:28:32;;;;;;;5.53;4.10;;;25.20;64.90;;;;;;5102995;28;20143;-83
2021/09/08 12:31:20;;;;;;;6.00;3.97;;;25.30;63.90;;;;;;5095310;28;20151;-83
2021/09/08 12:33:58;;;;;;;6.80;4.60;;;25.50;63.90;;;;;;5096175;28;20118;-83
2021/09/08 12:36:25;;;;;;;6.45;4.22;;;25.70;62.50;;;;;;5095621;28;20027;-84
2021/09/08 12:38:51;;;;;;;7.40;4.50;;;25.80;62.20;;;;;;5108574;28;20039;-82
2021/09/08 12:41:27;;;;;;;5.60;4.30;;;26.00;61.20;;;;;;5095508;28;20077;-84